createdAt,value
2023-05-09T00:02:25.525Z,76624.66
2023-05-09T00:04:53.371Z,76628.72
2023-05-09T00:07:21.203Z,76628.72
2023-05-09T00:09:48.946Z,76628.72
2023-05-09T00:12:17.363Z,76636.91
2023-05-09T00:14:45.463Z,76632.81
2023-05-09T00:17:15.778Z,76640.97
2023-05-09T00:19:45.164Z,76645.03
2023-05-09T00:22:13.540Z,76647.09
2023-05-09T00:24:41.383Z,76649.13
2023-05-09T00:27:09.953Z,76649.13
2023-05-09T00:29:37.921Z,76659.31
2023-05-09T00:32:06.325Z,76663.41
2023-05-09T00:34:34.457Z,76661.38
2023-05-09T00:37:03.671Z,76665.44
2023-05-09T00:39:31.439Z,76673.59
2023-05-09T00:41:59.182Z,76677.69
2023-05-09T00:44:27.031Z,76683.78
2023-05-09T00:46:54.774Z,76689.91
2023-05-09T00:49:22.593Z,76689.91
2023-05-09T00:51:50.961Z,76694.00
2023-05-09T00:54:20.060Z,76694.00
2023-05-09T00:56:48.033Z,76698.06
2023-05-09T00:59:17.432Z,76698.06
2023-05-09T01:01:45.856Z,76706.22
2023-05-09T01:04:15.139Z,76714.38
2023-05-09T01:06:53.135Z,76706.22
2023-05-09T01:09:25.820Z,76726.63
2023-05-09T01:12:03.206Z,76726.63
2023-05-09T01:14:38.452Z,76734.78
2023-05-09T01:17:12.273Z,76736.81
2023-05-09T01:19:55.195Z,76738.84
2023-05-09T01:22:30.882Z,76738.84
2023-05-09T01:25:24.888Z,76751.09
2023-05-09T01:27:59.752Z,76757.19
2023-05-09T01:30:30.997Z,76759.25
2023-05-09T01:33:01.601Z,76771.47
2023-05-09T01:35:33.110Z,76779.63
2023-05-09T01:38:02.392Z,76787.78
2023-05-09T01:40:33.074Z,76795.94
2023-05-09T01:43:04.537Z,76795.94
2023-05-09T01:45:36.106Z,76787.78
2023-05-09T01:48:05.761Z,76804.09
2023-05-09T01:50:36.369Z,76806.13
2023-05-09T01:53:06.829Z,76804.09
2023-05-09T01:55:37.523Z,76804.09
2023-05-09T01:58:07.119Z,76806.13
2023-05-09T02:00:37.570Z,76804.09
2023-05-09T02:03:07.020Z,76806.13
2023-05-09T02:05:35.828Z,76804.09
2023-05-09T02:08:03.909Z,76800.03
2023-05-09T02:10:32.463Z,76800.03
2023-05-09T02:13:00.451Z,76797.97
2023-05-09T02:15:30.146Z,76791.88
2023-05-09T02:17:59.418Z,76791.88
2023-05-09T02:20:27.217Z,76795.94
2023-05-09T02:22:55.027Z,76791.88
2023-05-09T02:25:23.352Z,76791.88
2023-05-09T02:27:53.373Z,76787.78
2023-05-09T02:30:25.286Z,76779.63
2023-05-09T02:32:57.728Z,76773.50
2023-05-09T02:35:29.075Z,76771.47
2023-05-09T02:37:58.036Z,76775.56
2023-05-09T02:40:27.872Z,76775.56
2023-05-09T02:42:55.837Z,76775.56
2023-05-09T02:45:23.726Z,76773.50
2023-05-09T02:47:51.680Z,76779.63
2023-05-09T02:50:19.559Z,76783.72
2023-05-09T02:52:48.662Z,76779.63
2023-05-09T02:55:16.620Z,76783.72
2023-05-09T02:57:44.621Z,76797.97
2023-05-09T03:00:13.440Z,76804.09
2023-05-09T03:02:41.323Z,76812.25
2023-05-09T03:05:09.712Z,76822.47
2023-05-09T03:07:37.616Z,76836.72
2023-05-09T03:10:07.876Z,76842.84
2023-05-09T03:12:35.617Z,76832.66
2023-05-09T03:15:03.527Z,76840.81
2023-05-09T03:17:31.376Z,76853.03
2023-05-09T03:20:00.500Z,76848.97
2023-05-09T03:22:29.409Z,76859.16
2023-05-09T03:24:57.176Z,76851.00
2023-05-09T03:27:26.520Z,76848.97
2023-05-09T03:29:54.254Z,76848.97
2023-05-09T03:32:22.084Z,76855.09
2023-05-09T03:34:50.007Z,76853.03
2023-05-09T03:37:17.880Z,76861.19
2023-05-09T03:39:45.665Z,76853.03
2023-05-09T03:42:13.479Z,76840.81
2023-05-09T03:44:42.565Z,76828.56
2023-05-09T03:47:10.394Z,76824.50
2023-05-09T03:49:38.129Z,76822.47
2023-05-09T03:52:06.213Z,76820.41
2023-05-09T03:54:34.051Z,76816.34
2023-05-09T03:57:01.803Z,76812.25
2023-05-09T03:59:29.573Z,76808.19
2023-05-09T04:01:58.965Z,76800.03
2023-05-09T04:04:26.831Z,76791.88
2023-05-09T04:06:54.603Z,76781.66
2023-05-09T04:09:22.429Z,76775.56
2023-05-09T04:11:50.146Z,76773.50
2023-05-09T04:14:18.033Z,76783.72
2023-05-09T04:16:45.835Z,76779.63
2023-05-09T04:19:14.967Z,76787.78
2023-05-09T04:21:42.715Z,76779.63
2023-05-09T04:24:10.713Z,76771.47
2023-05-09T04:26:39.083Z,76767.41
2023-05-09T04:29:06.911Z,76753.13
2023-05-09T04:31:35.226Z,76744.97
2023-05-09T04:34:03.265Z,76751.09
2023-05-09T04:36:33.886Z,76751.09
2023-05-09T04:39:01.965Z,76763.31
2023-05-09T04:41:29.712Z,76749.03
2023-05-09T04:43:57.569Z,76747.00
2023-05-09T04:46:25.999Z,76755.16
2023-05-09T04:48:53.872Z,76751.09
2023-05-09T04:51:21.623Z,76757.19
2023-05-09T04:53:50.852Z,76753.13
2023-05-09T04:56:18.595Z,76744.97
2023-05-09T04:58:46.303Z,76751.09
2023-05-09T05:01:14.138Z,76726.63
2023-05-09T05:03:41.900Z,76720.50
2023-05-09T05:06:09.666Z,76706.22
2023-05-09T05:08:37.449Z,76698.06
2023-05-09T05:11:06.589Z,76698.06
2023-05-09T05:13:34.324Z,76687.88
2023-05-09T05:16:02.151Z,76685.81
2023-05-09T05:18:29.904Z,76673.59
2023-05-09T05:20:57.771Z,76677.69
2023-05-09T05:23:25.554Z,76677.69
2023-05-09T05:25:53.309Z,76665.44
2023-05-09T05:28:22.479Z,76659.31
2023-05-09T05:30:50.563Z,76653.19
2023-05-09T05:33:18.303Z,76665.44
2023-05-09T05:35:46.042Z,76649.13
2023-05-09T05:38:14.042Z,76640.97
2023-05-09T05:40:41.822Z,76638.94
2023-05-09T05:43:09.549Z,76602.22
2023-05-09T05:45:38.809Z,76571.63
2023-05-09T05:48:06.747Z,76543.09
2023-05-09T05:50:34.627Z,76530.84
2023-05-09T05:53:02.453Z,76539.00
2023-05-09T05:55:30.213Z,76534.94
2023-05-09T05:57:57.943Z,76520.66
2023-05-09T06:00:25.952Z,76502.31
2023-05-09T06:02:55.185Z,76510.47
2023-05-09T06:05:23.136Z,76510.47
2023-05-09T06:07:50.948Z,76481.91
2023-05-09T06:10:18.664Z,76453.38
2023-05-09T06:12:46.453Z,76461.53
2023-05-09T06:15:14.513Z,76447.25
2023-05-09T06:17:42.559Z,76441.16
2023-05-09T06:20:12.239Z,76422.78
2023-05-09T06:22:40.265Z,76422.78
2023-05-09T06:25:10.339Z,76412.59
2023-05-09T06:27:38.494Z,76400.38
2023-05-09T06:30:23.819Z,76402.41
2023-05-09T06:32:53.080Z,76424.84
2023-05-09T06:35:22.500Z,76445.22
2023-05-09T06:37:50.312Z,76443.19
2023-05-09T06:40:18.427Z,76449.28
2023-05-09T06:42:46.376Z,76477.84
2023-05-09T06:45:14.641Z,76483.97
2023-05-09T06:47:42.741Z,76486.00
2023-05-09T06:50:10.784Z,76483.97
2023-05-09T06:52:39.923Z,76465.63
2023-05-09T06:55:09.331Z,76469.69
2023-05-09T06:57:37.255Z,76461.53
2023-05-09T07:00:06.805Z,76445.22
2023-05-09T07:02:34.686Z,76432.97
2023-05-09T07:05:02.733Z,76416.69
2023-05-09T07:07:30.581Z,76408.53
2023-05-09T07:10:10.360Z,76396.28
2023-05-09T07:12:40.128Z,76400.38
2023-05-09T07:15:09.653Z,76371.81
2023-05-09T07:17:37.419Z,76335.13
2023-05-09T07:20:06.184Z,76312.69
2023-05-09T07:22:36.342Z,76331.03
2023-05-09T07:25:08.294Z,76322.88
2023-05-09T07:27:36.277Z,76286.19
2023-05-09T07:30:04.531Z,76263.75
2023-05-09T07:32:32.411Z,76261.72
2023-05-09T07:35:00.204Z,76231.13
2023-05-09T07:37:27.973Z,76237.25
2023-05-09T07:39:55.911Z,76247.44
2023-05-09T07:42:25.017Z,76225.00
2023-05-09T07:44:52.772Z,76212.78
2023-05-09T07:47:20.559Z,76216.84
2023-05-09T07:49:48.542Z,76194.44
2023-05-09T07:52:17.349Z,76184.25
2023-05-09T07:54:45.569Z,76165.88
2023-05-09T07:57:13.329Z,76155.69
2023-05-09T07:59:42.435Z,76125.13
2023-05-09T08:02:10.256Z,76066.00
2023-05-09T08:04:41.180Z,76082.28
2023-05-09T08:07:09.323Z,76102.69
2023-05-09T08:09:37.570Z,76078.22
2023-05-09T08:12:06.057Z,76063.94
2023-05-09T08:14:33.864Z,76043.56
2023-05-09T08:17:03.017Z,76025.22
2023-05-09T08:19:30.743Z,76008.91
2023-05-09T08:21:58.501Z,75998.72
2023-05-09T08:24:26.346Z,76008.91
2023-05-09T08:26:54.085Z,76000.75
2023-05-09T08:29:21.830Z,75986.47
2023-05-09T08:31:49.740Z,75894.75
2023-05-09T08:34:18.907Z,75870.28
2023-05-09T08:36:47.080Z,75868.22
2023-05-09T08:39:14.929Z,75866.19
2023-05-09T08:41:44.115Z,75900.84
2023-05-09T08:44:12.094Z,75906.97
2023-05-09T08:46:43.890Z,75892.69
2023-05-09T08:49:12.003Z,75878.44
2023-05-09T08:51:41.828Z,75862.13
2023-05-09T08:54:09.694Z,75858.03
2023-05-09T08:56:37.823Z,75866.19
2023-05-09T08:59:06.642Z,75817.25
2023-05-09T09:01:35.113Z,75788.72
2023-05-09T09:04:03.989Z,75782.59
2023-05-09T09:06:34.537Z,75747.94
2023-05-09T09:09:07.094Z,75701.06
2023-05-09T09:11:38.446Z,75670.50
2023-05-09T09:14:12.762Z,75719.41
2023-05-09T09:16:42.746Z,75697.00
2023-05-09T09:19:17.550Z,75678.63
2023-05-09T09:21:46.833Z,75664.38
2023-05-09T09:24:18.685Z,75593.03
2023-05-09T09:26:48.780Z,75556.34
2023-05-09T09:29:18.524Z,75554.28
2023-05-09T09:31:47.266Z,75570.59
2023-05-09T09:34:21.305Z,75580.78
2023-05-09T09:36:49.548Z,75544.09
2023-05-09T09:39:18.680Z,75515.56
2023-05-09T09:41:46.438Z,75505.38
2023-05-09T09:44:15.755Z,75507.41
2023-05-09T09:46:45.401Z,75505.38
2023-05-09T09:49:14.298Z,75466.63
2023-05-09T09:51:42.087Z,75440.13
2023-05-09T09:54:10.538Z,75411.59
2023-05-09T09:56:44.543Z,75440.13
2023-05-09T09:59:13.541Z,75417.72
2023-05-09T10:02:04.230Z,75442.19
2023-05-09T10:04:35.168Z,75393.25
2023-05-09T10:07:05.125Z,75321.91
2023-05-09T10:09:34.082Z,75340.25
2023-05-09T10:12:06.272Z,75332.09
2023-05-09T10:14:35.771Z,75305.59
2023-05-09T10:17:05.737Z,75328.03
2023-05-09T10:19:34.127Z,75250.56
2023-05-09T10:22:05.127Z,75185.34
2023-05-09T10:24:36.742Z,75144.59
2023-05-09T10:27:10.514Z,75187.38
2023-05-09T10:29:40.415Z,75201.66
2023-05-09T10:32:14.410Z,75169.03
2023-05-09T10:34:45.077Z,75146.63
2023-05-09T10:37:13.416Z,75120.13
2023-05-09T10:39:42.789Z,75095.66
2023-05-09T10:42:14.202Z,75136.44
2023-05-09T10:44:42.509Z,75132.34
2023-05-09T10:47:13.144Z,75067.13
2023-05-09T10:49:41.800Z,75058.97
2023-05-09T10:52:09.735Z,75075.28
2023-05-09T10:54:38.317Z,75132.34
2023-05-09T10:57:06.923Z,75063.06
2023-05-09T10:59:38.410Z,75083.44
2023-05-09T11:02:06.761Z,75095.66
2023-05-09T11:04:34.499Z,75103.81
2023-05-09T11:07:02.289Z,75099.75
2023-05-09T11:09:33.651Z,75042.69
2023-05-09T11:12:12.552Z,75046.75
2023-05-09T11:14:45.052Z,75024.34
2023-05-09T11:17:14.277Z,74997.84
2023-05-09T11:20:05.479Z,75038.59
2023-05-09T11:22:41.384Z,75018.22
2023-05-09T11:25:11.176Z,75022.28
2023-05-09T11:27:42.488Z,74993.75
2023-05-09T11:30:14.571Z,74985.59
2023-05-09T11:32:45.543Z,74940.78
2023-05-09T11:35:15.814Z,74932.63
2023-05-09T11:37:48.415Z,74957.06
2023-05-09T11:40:18.296Z,74981.53
2023-05-09T11:42:47.414Z,74955.03
2023-05-09T11:45:18.064Z,74977.47
2023-05-09T11:47:47.303Z,74948.91
2023-05-09T11:50:16.411Z,74908.16
2023-05-09T11:52:44.525Z,74900.00
2023-05-09T11:55:14.573Z,74906.13
2023-05-09T11:57:44.190Z,74891.84
2023-05-09T12:00:12.988Z,74928.53
2023-05-09T12:02:45.263Z,74910.19
2023-05-09T12:05:15.554Z,74893.91
2023-05-09T12:07:44.631Z,74861.28
2023-05-09T12:10:16.788Z,74840.91
2023-05-09T12:12:46.063Z,74851.09
2023-05-09T12:15:17.525Z,74818.47
2023-05-09T12:17:49.640Z,74747.16
2023-05-09T12:20:19.144Z,74785.88
2023-05-09T12:22:54.055Z,74812.38
2023-05-09T12:25:23.513Z,74769.56
2023-05-09T12:27:54.593Z,74775.69
2023-05-09T12:30:22.959Z,74785.88
2023-05-09T12:32:52.263Z,74794.03
2023-05-09T12:35:23.386Z,74783.84
2023-05-09T12:37:58.152Z,74787.91
2023-05-09T12:40:26.408Z,74832.75
2023-05-09T12:42:59.865Z,74802.19
2023-05-09T12:45:28.101Z,74800.16
2023-05-09T12:47:58.306Z,74781.81
2023-05-09T12:50:34.740Z,74773.66
2023-05-09T12:53:04.236Z,74773.66
2023-05-09T12:55:32.878Z,74787.91
2023-05-09T12:58:02.477Z,74775.69
2023-05-09T13:00:41.865Z,74757.34
2023-05-09T13:03:23.088Z,74722.69
2023-05-09T13:05:58.578Z,74702.31
2023-05-09T13:08:26.577Z,74749.19
2023-05-09T13:11:04.052Z,74761.41
2023-05-09T13:13:36.222Z,74730.84
2023-05-09T13:16:05.754Z,74716.59
2023-05-09T13:18:36.056Z,74704.34
2023-05-09T13:21:04.960Z,74712.50
2023-05-09T13:23:32.709Z,74716.59
2023-05-09T13:26:00.492Z,74736.97
2023-05-09T13:28:28.344Z,74724.75
2023-05-09T13:30:56.094Z,74686.00
2023-05-09T13:33:26.616Z,74696.19
2023-05-09T13:35:57.082Z,74700.28
2023-05-09T13:38:25.625Z,74706.41
2023-05-09T13:40:54.645Z,74683.97
2023-05-09T13:43:24.670Z,74688.06
2023-05-09T13:45:52.434Z,74688.06
2023-05-09T13:48:20.211Z,74698.25
2023-05-09T13:50:48.106Z,74688.06
2023-05-09T13:53:17.202Z,74704.34
2023-05-09T13:55:45.538Z,74690.09
2023-05-09T13:58:13.696Z,74679.91
2023-05-09T14:00:41.862Z,74671.75
2023-05-09T14:03:09.871Z,74639.13
2023-05-09T14:05:37.855Z,74673.78
2023-05-09T14:08:07.900Z,74659.53
2023-05-09T14:10:37.243Z,74667.69
2023-05-09T14:13:05.055Z,74649.34
2023-05-09T14:15:32.802Z,74641.19
2023-05-09T14:18:00.709Z,74633.03
2023-05-09T14:20:28.542Z,74641.19
2023-05-09T14:22:59.749Z,74633.03
2023-05-09T14:25:27.649Z,74639.13
2023-05-09T14:27:56.803Z,74626.91
2023-05-09T14:30:25.692Z,74681.94
2023-05-09T14:32:53.852Z,74667.69
2023-05-09T14:35:23.760Z,74643.22
2023-05-09T14:37:51.636Z,74631.00
2023-05-09T14:40:21.100Z,74635.06
2023-05-09T14:42:49.247Z,74635.06
2023-05-09T14:45:18.735Z,74635.06
2023-05-09T14:47:46.984Z,74606.53
2023-05-09T14:50:15.884Z,74635.06
2023-05-09T14:52:44.619Z,74637.09
2023-05-09T14:55:12.720Z,74616.72
2023-05-09T14:57:40.756Z,74620.81
2023-05-09T15:00:20.210Z,74631.00
2023-05-09T15:02:50.868Z,74624.88
2023-05-09T15:05:18.997Z,74628.94
2023-05-09T15:07:46.931Z,74618.75
2023-05-09T15:10:15.173Z,74626.91
2023-05-09T15:12:44.502Z,74637.09
2023-05-09T15:15:16.766Z,74620.81
2023-05-09T15:17:45.342Z,74594.31
2023-05-09T15:20:16.115Z,74614.69
2023-05-09T15:22:44.897Z,74610.63
2023-05-09T15:25:13.046Z,74610.63
2023-05-09T15:27:41.344Z,74598.38
2023-05-09T15:30:10.580Z,74608.56
2023-05-09T15:32:40.980Z,74608.56
2023-05-09T15:35:09.737Z,74590.22
2023-05-09T15:37:38.842Z,74610.63
2023-05-09T15:40:08.382Z,74614.69
2023-05-09T15:42:36.708Z,74614.69
2023-05-09T15:45:04.860Z,74641.19
2023-05-09T15:47:32.648Z,74631.00
2023-05-09T15:50:00.702Z,74620.81
2023-05-09T15:52:29.193Z,74645.25
2023-05-09T15:54:58.382Z,74651.38
2023-05-09T15:57:26.310Z,74669.72
2023-05-09T15:59:55.165Z,74663.59
2023-05-09T16:02:24.239Z,74671.75
2023-05-09T16:04:52.197Z,74661.56
2023-05-09T16:07:20.666Z,74675.81
2023-05-09T16:09:48.890Z,74673.78
2023-05-09T16:12:18.334Z,74675.81
2023-05-09T16:14:46.132Z,74692.13
2023-05-09T16:17:14.007Z,74692.13
2023-05-09T16:19:42.393Z,74706.41
2023-05-09T16:22:11.381Z,74692.13
2023-05-09T16:24:39.131Z,74692.13
2023-05-09T16:27:06.937Z,74694.16
2023-05-09T16:29:36.483Z,74702.31
2023-05-09T16:32:04.276Z,74712.50
2023-05-09T16:34:32.126Z,74712.50
2023-05-09T16:37:00.481Z,74722.69
2023-05-09T16:39:28.931Z,74728.81
2023-05-09T16:41:57.241Z,74722.69
2023-05-09T16:44:25.505Z,74734.94
2023-05-09T16:46:54.805Z,74732.88
2023-05-09T16:49:22.636Z,74741.03
2023-05-09T16:51:50.413Z,74741.03
2023-05-09T16:54:18.231Z,74739.00
2023-05-09T16:56:46.084Z,74755.31
2023-05-09T16:59:13.850Z,74761.41
2023-05-09T17:01:41.951Z,74773.66
2023-05-09T17:04:11.245Z,74785.88
2023-05-09T17:06:39.081Z,74792.00
2023-05-09T17:09:06.905Z,74798.09
2023-05-09T17:11:34.689Z,74806.25
2023-05-09T17:14:03.214Z,74812.38
2023-05-09T17:16:31.079Z,74810.34
2023-05-09T17:18:59.170Z,74820.53
2023-05-09T17:21:29.300Z,74838.88
2023-05-09T17:23:57.076Z,74847.00
2023-05-09T17:26:25.909Z,74851.09
2023-05-09T17:28:53.770Z,74867.41
2023-05-09T17:31:21.722Z,74871.47
2023-05-09T17:33:49.528Z,74908.16
2023-05-09T17:36:17.288Z,74904.09
2023-05-09T17:38:46.484Z,74914.28
2023-05-09T17:41:14.266Z,74928.53
2023-05-09T17:43:42.025Z,74940.78
2023-05-09T17:46:09.813Z,74953.00
2023-05-09T17:48:37.651Z,74967.25
2023-05-09T17:51:05.406Z,74973.38
2023-05-09T17:53:33.138Z,74981.53
2023-05-09T17:56:02.304Z,74989.69
2023-05-09T17:58:30.065Z,74989.69
2023-05-09T18:00:59.470Z,75001.91
2023-05-09T18:03:28.652Z,75014.13
2023-05-09T18:05:57.245Z,75014.13
2023-05-09T18:08:25.039Z,75001.91
2023-05-09T18:10:54.548Z,75010.06
2023-05-09T18:13:23.973Z,75032.47
2023-05-09T18:15:54.013Z,75058.97
2023-05-09T18:18:22.404Z,75071.22
2023-05-09T18:20:50.306Z,75075.28
2023-05-09T18:23:18.086Z,75087.50
2023-05-09T18:25:45.887Z,75095.66
2023-05-09T18:28:13.655Z,75103.81
2023-05-09T18:30:42.828Z,75109.94
2023-05-09T18:33:10.614Z,75114.00
2023-05-09T18:35:38.349Z,75126.25
2023-05-09T18:38:06.079Z,75124.19
2023-05-09T18:40:33.904Z,75124.19
2023-05-09T18:43:01.657Z,75138.47
2023-05-09T18:45:29.473Z,75138.47
2023-05-09T18:47:58.682Z,75148.66
2023-05-09T18:50:26.552Z,75152.75
2023-05-09T18:52:54.464Z,75177.19
2023-05-09T18:55:22.637Z,75187.38
2023-05-09T18:57:50.434Z,75203.69
2023-05-09T19:00:18.522Z,75201.66
2023-05-09T19:02:46.354Z,75213.88
2023-05-09T19:05:15.842Z,75222.03
2023-05-09T19:07:43.603Z,75230.19
2023-05-09T19:10:13.240Z,75242.41
2023-05-09T19:12:41.693Z,75246.50
2023-05-09T19:15:10.928Z,75254.66
2023-05-09T19:17:38.979Z,75262.81
2023-05-09T19:20:08.496Z,75258.72
2023-05-09T19:22:39.093Z,75264.84
2023-05-09T19:25:07.631Z,75275.03
2023-05-09T19:27:35.387Z,75270.97
2023-05-09T19:30:04.377Z,75277.06
2023-05-09T19:32:32.221Z,75285.22
2023-05-09T19:35:00.106Z,75291.34
2023-05-09T19:37:28.046Z,75297.47
2023-05-09T19:39:57.205Z,75299.50
2023-05-09T19:42:25.022Z,75303.56
2023-05-09T19:44:53.193Z,75309.69
2023-05-09T19:47:20.945Z,75311.72
2023-05-09T19:49:48.696Z,75315.81
2023-05-09T19:52:16.564Z,75328.03
2023-05-09T19:54:44.328Z,75326.00
2023-05-09T19:57:13.519Z,75323.94
2023-05-09T19:59:41.358Z,75319.88
2023-05-09T20:02:09.706Z,75328.03
2023-05-09T20:04:38.395Z,75332.09
2023-05-09T20:07:06.304Z,75344.34
2023-05-09T20:09:33.995Z,75348.41
2023-05-09T20:12:03.462Z,75358.59
2023-05-09T20:14:32.787Z,75368.78
2023-05-09T20:17:00.568Z,75385.09
2023-05-09T20:19:28.757Z,75393.25
2023-05-09T20:21:56.489Z,75399.38
2023-05-09T20:24:24.194Z,75413.66
2023-05-09T20:26:52.131Z,75429.94
2023-05-09T20:29:19.894Z,75442.19
2023-05-09T20:31:48.924Z,75446.25
2023-05-09T20:34:18.035Z,75454.41
2023-05-09T20:36:48.384Z,75466.63
2023-05-09T20:39:17.695Z,75474.78
2023-05-09T20:41:45.493Z,75485.00
2023-05-09T20:44:14.925Z,75495.19
2023-05-09T20:46:43.395Z,75497.22
2023-05-09T20:49:12.620Z,75495.19
2023-05-09T20:51:40.591Z,75482.94
2023-05-09T20:54:08.347Z,75485.00
2023-05-09T20:56:36.137Z,75487.03
2023-05-09T20:59:04.578Z,75487.03
2023-05-09T21:01:35.546Z,75487.03
2023-05-09T21:04:03.957Z,75487.03
2023-05-09T21:06:33.103Z,75482.94
2023-05-09T21:09:00.953Z,75487.03
2023-05-09T21:11:28.726Z,75482.94
2023-05-09T21:13:56.417Z,75491.09
2023-05-09T21:16:24.152Z,75495.19
2023-05-09T21:18:51.949Z,75503.34
2023-05-09T21:21:19.651Z,75511.47
2023-05-09T21:23:48.687Z,75515.56
2023-05-09T21:26:16.514Z,75519.63
2023-05-09T21:28:44.218Z,75517.59
2023-05-09T21:31:11.971Z,75517.59
2023-05-09T21:33:39.752Z,75521.69
2023-05-09T21:36:08.372Z,75517.59
2023-05-09T21:38:36.088Z,75523.72
2023-05-09T21:41:05.320Z,75527.78
2023-05-09T21:43:33.098Z,75531.88
2023-05-09T21:46:00.805Z,75531.88
2023-05-09T21:48:28.591Z,75537.97
2023-05-09T21:50:56.330Z,75540.03
2023-05-09T21:53:24.360Z,75548.19
2023-05-09T21:55:52.083Z,75548.19
2023-05-09T21:58:21.159Z,75554.28
2023-05-09T22:00:48.927Z,75548.19
2023-05-09T22:03:16.832Z,75556.34
2023-05-09T22:05:44.794Z,75548.19
2023-05-09T22:08:12.554Z,75548.19
2023-05-09T22:10:40.774Z,75550.22
2023-05-09T22:13:08.515Z,75556.34
2023-05-09T22:15:37.590Z,75552.25
2023-05-09T22:18:05.555Z,75558.38
2023-05-09T22:20:33.286Z,75558.38
2023-05-09T22:23:01.270Z,75564.47
2023-05-09T22:25:29.002Z,75568.56
2023-05-09T22:27:57.668Z,75570.59
2023-05-09T22:30:25.876Z,75578.75
2023-05-09T22:32:55.032Z,75580.78
2023-05-09T22:35:22.962Z,75584.88
2023-05-09T22:37:50.798Z,75593.03
2023-05-09T22:40:18.885Z,75597.09
2023-05-09T22:42:46.576Z,75603.22
2023-05-09T22:45:14.254Z,75613.41
2023-05-09T22:47:42.036Z,75617.50
2023-05-09T22:50:12.929Z,75609.34
2023-05-09T22:52:40.663Z,75617.50
2023-05-09T22:55:09.285Z,75605.25
2023-05-09T22:57:37.147Z,75609.34
2023-05-09T23:00:06.094Z,75609.34
2023-05-09T23:02:33.964Z,75601.19
2023-05-09T23:05:01.738Z,75601.19
2023-05-09T23:07:30.892Z,75601.19
2023-05-09T23:09:59.216Z,75597.09
2023-05-09T23:12:27.033Z,75597.09
2023-05-09T23:14:54.778Z,75597.09
2023-05-09T23:17:23.024Z,75595.06
2023-05-09T23:19:50.855Z,75593.03
2023-05-09T23:22:18.609Z,75591.00
2023-05-09T23:24:47.744Z,75593.03
2023-05-09T23:27:15.470Z,75595.06
2023-05-09T23:29:43.484Z,75593.03
2023-05-09T23:32:11.287Z,75586.91
2023-05-09T23:34:39.005Z,75593.03
2023-05-09T23:37:06.834Z,75597.09
2023-05-09T23:39:34.623Z,75601.19
2023-05-09T23:42:04.091Z,75601.19
2023-05-09T23:44:31.877Z,75595.06
2023-05-09T23:46:59.741Z,75593.03
2023-05-09T23:49:27.504Z,75591.00
2023-05-09T23:51:55.363Z,75593.03
2023-05-09T23:54:24.397Z,75588.94
2023-05-09T23:56:52.126Z,75584.88
2023-05-09T23:59:21.199Z,75580.78
